Time;durP1;ratioP1;P1;durP2;ratioP2;P2;SDS_P1;SDS_P2;PMS_P1;PMS_P2;Temp;Humidity;BMP_temperature;BMP_pressure;BME280_temperature;BME280_humidity;BME280_pressure;Samples;Min_cycle;Max_cycle;Signal;HPM_P1;HPM_P2
2021/12/18 00:00:48;;;;;;;;;;;128.30;2252.80;;;;;;5043939;28;19939;-83
2021/12/18 00:03:13;;;;;;;;;;;128.10;2252.80;;;;;;5042380;28;20335;-80
2021/12/18 00:05:39;;;;;;;;;;;128.10;2252.80;;;;;;5060180;28;20007;-83
2021/12/18 00:08:05;;;;;;;;;;;128.20;2252.80;;;;;;5060904;28;19904;-87
2021/12/18 00:10:31;;;;;;;;;;;128.30;2252.80;;;;;;5042494;28;19923;-84
2021/12/18 00:12:56;;;;;;;;;;;128.20;2252.80;;;;;;5041954;28;19982;-81
2021/12/18 00:15:23;;;;;;;;;;;128.20;2252.80;;;;;;5063026;28;19912;-85
2021/12/18 00:17:48;;;;;;;;;;;128.30;2252.80;;;;;;5044540;28;19948;-75
2021/12/18 00:20:15;;;;;;;;;;;128.10;2252.80;;;;;;5063196;28;19951;-85
2021/12/18 00:22:41;;;;;;;;;;;128.10;2252.80;;;;;;5061761;28;19948;-81
2021/12/18 00:25:07;;;;;;;;;;;128.20;2252.80;;;;;;5061115;28;19999;-82
2021/12/18 00:27:33;;;;;;;;;;;128.20;2252.80;;;;;;5043848;28;19999;-80
2021/12/18 00:29:58;;;;;;;;;;;128.20;2252.80;;;;;;5059968;28;19931;-79
2021/12/18 00:32:24;;;;;;;;;;;128.10;2252.80;;;;;;5044144;28;20282;-80
2021/12/18 00:34:50;;;;;;;;;;;128.10;2252.80;;;;;;5038427;28;20888;-79
2021/12/18 00:37:15;;;;;;;;;;;128.10;2252.80;;;;;;5040575;28;19970;-82
2021/12/18 00:39:51;;;;;;;;;;;128.20;2252.80;;;;;;5060955;28;19915;-77
2021/12/18 00:42:37;;;;;;;;;;;128.10;2252.80;;;;;;5056809;28;19913;-77
2021/12/18 00:45:04;;;;;;;;;;;128.00;2252.80;;;;;;5056541;28;19905;-79
2021/12/18 00:47:30;;;;;;;;;;;128.40;2252.80;;;;;;5055437;28;20410;-83
2021/12/18 00:49:55;;;;;;;;;;;128.30;2252.80;;;;;;5055776;28;20004;-80
2021/12/18 00:52:21;;;;;;;;;;;128.20;2252.80;;;;;;5056592;28;19913;-81
2021/12/18 00:54:46;;;;;;;;;;;128.30;2252.80;;;;;;5058958;28;19959;-80
2021/12/18 00:57:12;;;;;;;;;;;128.30;2252.80;;;;;;5055555;28;19925;-80
2021/12/18 00:59:38;;;;;;;;;;;128.40;2252.80;;;;;;5038926;28;19911;-83
2021/12/18 01:02:03;;;;;;;;;;;128.30;2252.80;;;;;;5054850;28;20306;-82
2021/12/18 01:04:30;;;;;;;;;;;128.30;2252.80;;;;;;5056007;28;19908;-82
2021/12/18 01:06:56;;;;;;;;;;;128.20;2252.80;;;;;;5062389;28;20405;-84
2021/12/18 01:09:31;;;;;;;;;;;128.20;2252.80;;;;;;5063100;28;19909;-82
2021/12/18 01:11:57;;;;;;;;;;;128.30;2252.80;;;;;;5062073;28;20007;-82
2021/12/18 01:14:38;;;;;;;;;;;128.20;2252.80;;;;;;5061112;28;20002;-77
2021/12/18 01:25:04;;;;;;;;;;;128.00;2252.80;;;;;;5065712;28;19915;-81
2021/12/18 01:27:31;;;;;;;;;;;128.10;2252.80;;;;;;5047213;28;19905;-80
2021/12/18 01:29:57;;;;;;;;;;;128.00;2252.80;;;;;;5065952;28;20443;-78
2021/12/18 01:32:24;;;;;;;;;;;128.10;2252.80;;;;;;5064838;28;19932;-79
2021/12/18 01:34:50;;;;;;;;;;;128.00;2252.80;;;;;;5049447;28;19943;-75
2021/12/18 01:37:15;;;;;;;;;;;128.10;2252.80;;;;;;5066471;28;19960;-78
2021/12/18 01:39:42;;;;;;;;;;;128.10;2252.80;;;;;;5064131;28;19952;-78
2021/12/18 01:45:11;;;;;;;;;;;128.60;2252.80;;;;;;5064923;28;19951;-75
2021/12/18 01:53:07;;;;;;;;;;;128.00;2252.80;;;;;;5062630;28;19916;-81
2021/12/18 01:55:33;;;;;;;;;;;103.30;2227.20;;;;;;5046419;28;20353;-81
2021/12/18 01:57:59;;;;;;;;;;;103.30;2227.20;;;;;;5066597;28;19916;-75
2021/12/18 02:00:27;;;;;;;;;;;103.30;2227.20;;;;;;5065281;28;19904;-74
2021/12/18 02:02:53;;;;;;;;;;;103.20;2227.20;;;;;;5064716;28;20285;-80
2021/12/18 02:05:19;;;;;;;;;;;103.20;2227.20;;;;;;5066875;28;19904;-78
2021/12/18 02:07:45;;;;;;;;;;;103.20;2227.20;;;;;;5064665;28;19944;-76
2021/12/18 02:10:18;;;;;;;;;;;103.20;2227.20;;;;;;5049368;28;19912;-80
2021/12/18 02:20:45;;;;;;;;;;;103.10;2227.20;;;;;;5065541;28;20005;-79
2021/12/18 02:23:11;;;;;;;;;;;103.10;2227.20;;;;;;5065214;28;19911;-81
2021/12/18 02:25:37;;;;;;;;;;;103.10;2227.20;;;;;;5063782;28;20004;-82
2021/12/18 02:28:14;;;;;;;;;;;103.10;2227.20;;;;;;5063804;28;19959;-75
2021/12/18 02:30:40;;;;;;;;;;;103.10;2227.20;;;;;;5063629;28;19905;-79
2021/12/18 02:33:06;;;;;;;;;;;103.10;2227.20;;;;;;5048691;28;19916;-76
2021/12/18 02:35:36;;;;;;;;;;;103.20;2227.20;;;;;;5063236;28;19958;-78
2021/12/18 02:38:10;;;;;;;;;;;103.20;2227.20;;;;;;5045758;28;19909;-80
2021/12/18 02:43:11;;;;;;;;;;;103.20;2227.20;;;;;;5061690;28;19951;-82
2021/12/18 02:45:36;;;;;;;;;;;103.10;2227.20;;;;;;5047066;28;19916;-76
2021/12/18 02:48:02;;;;;;;;;;;103.20;2227.20;;;;;;5059996;28;19995;-81
2021/12/18 02:50:27;;;;;;;;;;;103.10;2227.20;;;;;;5062730;28;19904;-76
2021/12/18 02:52:53;;;;;;;;;;;103.10;2227.20;;;;;;5065010;28;20003;-76
2021/12/18 02:55:19;;;;;;;;;;;103.00;2227.20;;;;;;5063206;28;20004;-82
2021/12/18 02:57:44;;;;;;;;;;;103.00;2227.20;;;;;;5047480;28;19920;-81
2021/12/18 03:00:10;;;;;;;;;;;103.00;2227.20;;;;;;5049402;28;20409;-78
2021/12/18 03:02:41;;;;;;;;;;;103.10;2227.20;;;;;;5063229;28;19909;-74
2021/12/18 03:05:10;;;;;;;;;;;103.10;2227.20;;;;;;5077183;28;20302;-80
2021/12/18 03:07:35;;;;;;;;;;;103.10;2227.20;;;;;;5045341;28;19904;-75
2021/12/18 03:25:56;;;;;;;;;;;103.20;2227.20;;;;;;5054536;28;19915;-80
2021/12/18 03:28:23;;;;;;;;;;;103.20;2227.20;;;;;;5053800;28;20381;-81
2021/12/18 03:30:48;;;;;;;;;;;103.20;2227.20;;;;;;5053845;28;19905;-79
2021/12/18 03:33:14;;;;;;;;;;;103.30;2227.20;;;;;;5053551;28;19913;-77
2021/12/18 03:35:39;;;;;;;;;;;103.30;2227.20;;;;;;5053493;28;19913;-79
2021/12/18 03:38:05;;;;;;;;;;;103.30;2227.20;;;;;;5053744;28;19909;-78
2021/12/18 03:40:31;;;;;;;;;;;103.20;2227.20;;;;;;5053484;28;19905;-79
2021/12/18 03:42:56;;;;;;;;;;;103.30;2227.20;;;;;;5053760;28;19909;-75
2021/12/18 03:45:22;;;;;;;;;;;103.20;2227.20;;;;;;5053367;28;19905;-80
2021/12/18 03:47:49;;;;;;;;;;;103.20;2227.20;;;;;;5053459;28;19983;-77
2021/12/18 03:50:14;;;;;;;;;;;103.20;2227.20;;;;;;5053317;28;19904;-76
2021/12/18 03:52:40;;;;;;;;;;;103.20;2227.20;;;;;;5035803;28;19978;-78
2021/12/18 03:55:06;;;;;;;;;;;103.20;2227.20;;;;;;5053366;28;19951;-80
2021/12/18 03:57:31;;;;;;;;;;;103.20;2227.20;;;;;;5053352;28;20298;-77
2021/12/18 03:59:57;;;;;;;;;;;103.20;2227.20;;;;;;5053043;28;19911;-78
2021/12/18 04:02:23;;;;;;;;;;;103.30;2227.20;;;;;;5052957;28;19904;-78
2021/12/18 04:04:48;;;;;;;;;;;128.50;2252.80;;;;;;5034792;28;20315;-81
2021/12/18 04:07:15;;;;;;;;;;;103.10;2227.20;;;;;;5053043;28;19928;-78
2021/12/18 04:09:41;;;;;;;;;;;103.30;2227.20;;;;;;5053099;28;19932;-82
2021/12/18 04:12:07;;;;;;;;;;;103.20;2227.20;;;;;;5029359;28;20374;-75
2021/12/18 04:14:32;;;;;;;;;;;103.20;2227.20;;;;;;5022735;28;19911;-78
2021/12/18 04:16:58;;;;;;;;;;;103.20;2227.20;;;;;;5026074;28;19912;-82
2021/12/18 04:19:23;;;;;;;;;;;103.30;2227.20;;;;;;5026891;28;19905;-77
2021/12/18 04:21:49;;;;;;;;;;;103.30;2227.20;;;;;;5025717;28;20278;-76
2021/12/18 04:24:15;;;;;;;;;;;103.20;2227.20;;;;;;5025474;28;19909;-77
2021/12/18 04:26:41;;;;;;;;;;;103.30;2227.20;;;;;;5041893;28;20090;-75
2021/12/18 04:29:06;;;;;;;;;;;103.20;2227.20;;;;;;5041305;28;19908;-76
2021/12/18 04:31:33;;;;;;;;;;;103.30;2227.20;;;;;;5042086;28;19905;-78
2021/12/18 04:33:59;;;;;;;;;;;103.30;2227.20;;;;;;5044616;28;19905;-80
2021/12/18 04:36:25;;;;;;;;;;;103.30;2227.20;;;;;;5041951;28;19920;-81
2021/12/18 04:38:50;;;;;;;;;;;103.30;2227.20;;;;;;5041872;28;20004;-81
2021/12/18 04:41:34;;;;;;;;;;;103.30;2227.20;;;;;;5041841;28;19920;-78
2021/12/18 04:43:59;;;;;;;;;;;103.30;2227.20;;;;;;5042419;28;19909;-81
2021/12/18 04:46:25;;;;;;;;;;;103.30;2227.20;;;;;;5021305;28;19956;-79
2021/12/18 04:48:50;;;;;;;;;;;128.00;2252.80;;;;;;5043347;28;20372;-76
2021/12/18 04:51:16;;;;;;;;;;;128.00;2252.80;;;;;;5042702;28;19940;-79
2021/12/18 04:53:42;;;;;;;;;;;128.00;2252.80;;;;;;5041644;28;19915;-75
2021/12/18 04:56:07;;;;;;;;;;;128.00;2252.80;;;;;;5038563;28;19913;-80
2021/12/18 04:58:33;;;;;;;;;;;128.00;2252.80;;;;;;5045121;28;20309;-79
2021/12/18 05:00:58;;;;;;;;;;;103.30;2227.20;;;;;;5047134;28;19966;-79
2021/12/18 05:03:24;;;;;;;;;;;103.20;2227.20;;;;;;5045409;28;19905;-79
2021/12/18 05:05:50;;;;;;;;;;;103.30;2227.20;;;;;;5045434;28;19952;-80
2021/12/18 05:08:15;;;;;;;;;;;103.20;2227.20;;;;;;5046625;28;20277;-80
2021/12/18 05:10:41;;;;;;;;;;;103.20;2227.20;;;;;;5047204;28;19905;-79
2021/12/18 05:13:06;;;;;;;;;;;103.20;2227.20;;;;;;5054616;28;19917;-75
2021/12/18 05:15:32;;;;;;;;;;;103.20;2227.20;;;;;;5056571;28;19905;-80
2021/12/18 05:17:58;;;;;;;;;;;103.30;2227.20;;;;;;5056548;28;19935;-80
2021/12/18 05:20:24;;;;;;;;;;;103.30;2227.20;;;;;;5038468;28;20293;-76
2021/12/18 05:22:49;;;;;;;;;;;103.30;2227.20;;;;;;5038381;28;19909;-79
2021/12/18 05:25:15;;;;;;;;;;;103.30;2227.20;;;;;;5056097;28;19991;-77
2021/12/18 05:27:40;;;;;;;;;;;103.30;2227.20;;;;;;5056134;28;20350;-81
2021/12/18 05:30:07;;;;;;;;;;;128.00;2252.80;;;;;;5056042;28;19908;-77
2021/12/18 05:32:33;;;;;;;;;;;128.00;2252.80;;;;;;5055701;28;19904;-75
2021/12/18 05:34:59;;;;;;;;;;;103.30;2227.20;;;;;;5056177;28;19911;-77
2021/12/18 05:39:50;;;;;;;;;;;103.20;2227.20;;;;;;5056457;28;20271;-80
2021/12/18 05:42:16;;;;;;;;;;;103.10;2227.20;;;;;;5055863;28;19912;-80
2021/12/18 05:44:41;;;;;;;;;;;103.00;2227.20;;;;;;5037986;28;19908;-84
2021/12/18 05:47:07;;;;;;;;;;;103.10;2227.20;;;;;;5055731;28;19940;-81
2021/12/18 05:49:32;;;;;;;;;;;103.10;2227.20;;;;;;5037250;28;20335;-76
2021/12/18 05:51:58;;;;;;;;;;;103.20;2227.20;;;;;;5054555;28;19913;-80
2021/12/18 05:54:24;;;;;;;;;;;103.20;2227.20;;;;;;5055523;28;19908;-80
2021/12/18 05:56:49;;;;;;;;;;;103.00;2227.20;;;;;;5050243;28;19960;-80
2021/12/18 05:59:15;;;;;;;;;;;103.10;2227.20;;;;;;5054808;28;19990;-78
2021/12/18 06:01:41;;;;;;;;;;;103.10;2227.20;;;;;;5037669;28;20385;-78
2021/12/18 06:04:07;;;;;;;;;;;103.20;2227.20;;;;;;5054831;28;19905;-75
2021/12/18 06:06:33;;;;;;;;;;;103.10;2227.20;;;;;;5037311;28;19999;-77
2021/12/18 06:08:59;;;;;;;;;;;103.10;2227.20;;;;;;5054537;28;19958;-76
2021/12/18 06:11:28;;;;;;;;;;;103.20;2227.20;;;;;;5056135;28;19916;-77
2021/12/18 06:13:53;;;;;;;;;;;103.20;2227.20;;;;;;5047499;28;19950;-76
2021/12/18 06:16:19;;;;;;;;;;;103.20;2227.20;;;;;;5046426;28;19912;-78
2021/12/18 06:18:47;;;;;;;;;;;103.20;2227.20;;;;;;5066512;28;19959;-77
2021/12/18 06:21:14;;;;;;;;;;;103.20;2227.20;;;;;;5065588;28;20449;-76
2021/12/18 06:23:43;;;;;;;;;;;103.10;2227.20;;;;;;5065116;28;19959;-75
2021/12/18 06:26:09;;;;;;;;;;;103.20;2227.20;;;;;;5063331;28;19908;-77
2021/12/18 06:28:35;;;;;;;;;;;103.00;2227.20;;;;;;5047097;28;20396;-77
2021/12/18 06:31:01;;;;;;;;;;;103.10;2227.20;;;;;;5064862;28;19908;-74
2021/12/18 06:33:27;;;;;;;;;;;103.10;2227.20;;;;;;5045765;28;19912;-76
2021/12/18 06:35:53;;;;;;;;;;;103.20;2227.20;;;;;;5065043;28;20366;-79
2021/12/18 06:38:19;;;;;;;;;;;103.10;2227.20;;;;;;5064654;28;19909;-80
2021/12/18 06:40:44;;;;;;;;;;;103.10;2227.20;;;;;;5066615;28;19904;-75
2021/12/18 06:43:10;;;;;;;;;;;103.20;2227.20;;;;;;5044707;28;20243;-82
2021/12/18 06:45:35;;;;;;;;;;;103.20;2227.20;;;;;;5047039;28;19911;-78
2021/12/18 06:48:01;;;;;;;;;;;103.10;2227.20;;;;;;5044691;28;19904;-83
2021/12/18 06:50:27;;;;;;;;;;;103.00;2227.20;;;;;;5065588;28;19912;-76
2021/12/18 06:52:53;;;;;;;;;;;103.00;2227.20;;;;;;5060672;28;20016;-79
2021/12/18 06:55:18;;;;;;;;;;;103.00;2227.20;;;;;;5064784;28;20487;-81
2021/12/18 06:57:44;;;;;;;;;;;103.00;2227.20;;;;;;5064958;28;19951;-85
2021/12/18 07:00:11;;;;;;;;;;;103.10;2227.20;;;;;;5045636;28;20274;-82
2021/12/18 07:02:37;;;;;;;;;;;103.10;2227.20;;;;;;5046347;28;19904;-77
2021/12/18 07:05:03;;;;;;;;;;;103.10;2227.20;;;;;;5046600;28;20324;-78
2021/12/18 07:07:29;;;;;;;;;;;103.20;2227.20;;;;;;5065258;28;19904;-78
2021/12/18 07:09:55;;;;;;;;;;;103.10;2227.20;;;;;;5045220;28;19904;-80
2021/12/18 07:12:20;;;;;;;;;;;103.10;2227.20;;;;;;5058643;28;20003;-79
2021/12/18 07:14:46;;;;;;;;;;;103.20;2227.20;;;;;;5036027;28;19908;-77
2021/12/18 07:17:12;;;;;;;;;;;103.20;2227.20;;;;;;5036281;28;19951;-80
2021/12/18 07:19:38;;;;;;;;;;;103.30;2227.20;;;;;;5053610;28;19912;-77
2021/12/18 07:22:03;;;;;;;;;;;103.30;2227.20;;;;;;5035251;28;19915;-79
2021/12/18 07:24:29;;;;;;;;;;;103.30;2227.20;;;;;;5035503;28;19909;-81
2021/12/18 07:26:55;;;;;;;;;;;103.30;2227.20;;;;;;5053846;28;20363;-76
2021/12/18 07:29:21;;;;;;;;;;;128.00;2252.80;;;;;;5035467;28;19995;-75
2021/12/18 07:31:46;;;;;;;;;;;128.10;2252.80;;;;;;5053639;28;19916;-76
2021/12/18 07:34:12;;;;;;;;;;;128.00;2252.80;;;;;;5053615;28;19951;-75
2021/12/18 07:36:37;;;;;;;;;;;128.00;2252.80;;;;;;5035756;28;19915;-76
2021/12/18 07:39:03;;;;;;;;;;;103.30;2227.20;;;;;;5035820;28;19909;-78
2021/12/18 07:41:29;;;;;;;;;;;128.00;2252.80;;;;;;5053584;28;19935;-80
2021/12/18 07:43:55;;;;;;;;;;;128.00;2252.80;;;;;;5035883;28;20414;-81
2021/12/18 07:46:20;;;;;;;;;;;128.20;2252.80;;;;;;5035605;28;20341;-76
2021/12/18 07:48:46;;;;;;;;;;;128.20;2252.80;;;;;;5053040;28;19959;-79
2021/12/18 07:51:12;;;;;;;;;;;128.30;2252.80;;;;;;5035231;28;19905;-80
2021/12/18 07:53:37;;;;;;;;;;;128.20;2252.80;;;;;;5035289;28;19909;-76
2021/12/18 07:56:04;;;;;;;;;;;128.20;2252.80;;;;;;5035194;28;19913;-79
2021/12/18 07:58:30;;;;;;;;;;;128.20;2252.80;;;;;;5035347;28;19951;-77
2021/12/18 08:00:55;;;;;;;;;;;128.30;2252.80;;;;;;5047853;28;20338;-79
2021/12/18 08:03:21;;;;;;;;;;;128.40;2252.80;;;;;;5034945;28;19912;-78
2021/12/18 08:05:46;;;;;;;;;;;128.30;2252.80;;;;;;5035774;28;19916;-76
2021/12/18 08:08:12;;;;;;;;;;;128.40;2252.80;;;;;;5052564;28;19905;-77
2021/12/18 08:10:38;;;;;;;;;;;128.30;2252.80;;;;;;5035025;28;20258;-78
2021/12/18 08:13:04;;;;;;;;;;;128.30;2252.80;;;;;;5026535;28;19923;-79
2021/12/18 08:15:29;;;;;;;;;;;128.40;2252.80;;;;;;5044819;28;19940;-77
2021/12/18 08:17:57;;;;;;;;;;;128.30;2252.80;;;;;;5023729;28;19963;-78
2021/12/18 08:20:23;;;;;;;;;;;128.40;2252.80;;;;;;5042327;28;19908;-77
2021/12/18 08:22:49;;;;;;;;;;;128.50;2252.80;;;;;;5025105;28;20337;-78
2021/12/18 08:25:14;;;;;;;;;;;128.60;2252.80;;;;;;5023703;28;19920;-83
2021/12/18 08:27:40;;;;;;;;;;;128.50;2252.80;;;;;;5025024;28;19959;-80
2021/12/18 08:30:06;;;;;;;;;;;128.70;2252.80;;;;;;5024789;28;19905;-76
2021/12/18 08:32:31;;;;;;;;;;;128.60;2252.80;;;;;;5023545;28;20335;-76
2021/12/18 08:34:57;;;;;;;;;;;128.60;2252.80;;;;;;5042568;28;19979;-78
2021/12/18 08:37:23;;;;;;;;;;;128.70;2252.80;;;;;;5041257;28;19913;-77
2021/12/18 08:39:48;;;;;;;;;;;128.70;2252.80;;;;;;5023233;28;19999;-80
2021/12/18 08:42:14;;;;;;;;;;;128.70;2252.80;;;;;;5024877;28;19948;-79
2021/12/18 08:44:40;;;;;;;;;;;128.40;2252.80;;;;;;5023479;28;19905;-81
2021/12/18 08:47:05;;;;;;;;;;;128.90;2252.80;;;;;;5024948;28;20320;-79
2021/12/18 08:49:31;;;;;;;;;;;128.90;2252.80;;;;;;5040901;28;19912;-81
2021/12/18 08:51:57;;;;;;;;;;;153.60;2252.80;;;;;;5024239;28;19999;-77
2021/12/18 08:54:24;;;;;;;;;;;153.70;2252.80;;;;;;5043305;28;20477;-85
2021/12/18 08:56:49;;;;;;;;;;;153.70;2252.80;;;;;;5037769;28;19963;-78
2021/12/18 08:59:15;;;;;;;;;;;153.70;2252.80;;;;;;5043189;28;20002;-80
2021/12/18 09:01:40;;;;;;;;;;;153.80;2252.80;;;;;;5040673;28;19912;-81
2021/12/18 09:04:06;;;;;;;;;;;153.90;2252.80;;;;;;5022288;28;19905;-77
2021/12/18 09:06:32;;;;;;;;;;;153.90;2252.80;;;;;;5039384;28;19904;-78
2021/12/18 09:08:57;;;;;;;;;;;154.00;2252.80;;;;;;5023506;28;20366;-76
2021/12/18 09:11:23;;;;;;;;;;;154.10;2252.80;;;;;;5021782;28;19924;-79
2021/12/18 09:13:49;;;;;;;;;;;154.10;2252.80;;;;;;5019956;28;19906;-77
2021/12/18 09:16:15;;;;;;;;;;;154.20;2252.80;;;;;;5041430;28;19915;-79
2021/12/18 09:18:40;;;;;;;;;;;154.40;2252.80;;;;;;5023584;28;20324;-78
2021/12/18 09:21:06;;;;;;;;;;;154.30;2252.80;;;;;;5023794;28;20000;-77
2021/12/18 09:23:32;;;;;;;;;;;154.50;2252.80;;;;;;5040908;28;20354;-77
2021/12/18 09:25:57;;;;;;;;;;;154.50;2252.80;;;;;;5024406;28;19963;-76
2021/12/18 09:28:23;;;;;;;;;;;154.50;2252.80;;;;;;4995864;28;19960;-78
2021/12/18 09:30:49;;;;;;;;;;;179.30;2252.80;;;;;;5019559;28;19989;-76
2021/12/18 09:33:16;;;;;;;;;;;179.40;2252.80;;;;;;5008808;28;19996;-75
2021/12/18 09:35:41;;;;;;;;;;;179.40;2252.80;;;;;;5010941;28;19905;-76
2021/12/18 09:38:07;;;;;;;;;;;179.40;2252.80;;;;;;5000487;28;20267;-77
2021/12/18 09:40:33;;;;;;;;;;;179.40;2252.80;;;;;;5023601;28;19913;-77
2021/12/18 09:42:58;;;;;;;;;;;179.60;2252.80;;;;;;5046371;28;19912;-77
2021/12/18 09:45:24;;;;;;;;;;;179.40;2252.80;;;;;;5027811;28;19959;-78
2021/12/18 09:47:50;;;;;;;;;;;180.00;2252.80;;;;;;5035956;28;19905;-77
2021/12/18 09:50:17;;;;;;;;;;;180.10;2252.80;;;;;;5029211;28;19945;-78
2021/12/18 09:52:43;;;;;;;;;;;204.80;2252.80;;;;;;5034608;28;20014;-78
2021/12/18 09:55:10;;;;;;;;;;;204.80;2252.80;;;;;;5035315;28;19909;-80
2021/12/18 09:57:35;;;;;;;;;;;205.00;2252.80;;;;;;5033838;28;19913;-77
2021/12/18 10:00:03;;;;;;;;;;;205.10;2252.80;;;;;;5018051;28;19999;-79
2021/12/18 10:02:29;;;;;;;;;;;205.30;2252.80;;;;;;5035704;28;19948;-78
2021/12/18 10:04:54;;;;;;;;;;;205.20;2252.80;;;;;;5035060;28;19955;-79
2021/12/18 10:07:21;;;;;;;;;;;205.20;2252.80;;;;;;5017839;28;19960;-78
2021/12/18 10:09:48;;;;;;;;;;;205.30;2252.80;;;;;;5017613;28;19916;-78
2021/12/18 10:12:18;;;;;;;;;;;205.50;2252.80;;;;;;5046095;28;19916;-79
2021/12/18 10:14:46;;;;;;;;;;;205.40;2252.80;;;;;;5032959;28;19912;-78
2021/12/18 10:17:24;;;;;;;;;;;205.70;2252.80;;;;;;5035137;28;19956;-79
2021/12/18 10:19:51;;;;;;;;;;;205.70;2252.80;;;;;;5035380;28;20008;-77
2021/12/18 10:22:17;;;;;;;;;;;205.70;2252.80;;;;;;5017377;28;19917;-78
2021/12/18 10:24:44;;;;;;;;;;;205.60;2252.80;;;;;;5017920;28;19936;-78
2021/12/18 10:27:17;;;;;;;;;;;205.60;2252.80;;;;;;5035125;28;19943;-77
2021/12/18 10:29:43;;;;;;;;;;;230.50;2252.80;;;;;;5017769;28;20315;-77
2021/12/18 10:32:10;;;;;;;;;;;230.60;2252.80;;;;;;5024047;28;19909;-77
2021/12/18 10:34:36;;;;;;;;;;;230.60;2252.80;;;;;;5026343;28;20003;-78
2021/12/18 10:37:20;;;;;;;;;;;230.60;2227.20;;;;;;5045932;28;19916;-81
2021/12/18 10:39:56;;;;;;;;;;;230.70;2252.80;;;;;;5023861;28;19905;-79
2021/12/18 10:42:28;;;;;;;;;;;230.80;2227.20;;;;;;5024269;28;20386;-78
2021/12/18 10:44:58;;;;;;;;;;;231.00;2252.80;;;;;;5046414;28;19932;-80
2021/12/18 10:47:24;;;;;;;;;;;230.90;2227.20;;;;;;5038611;28;19909;-77
2021/12/18 10:49:50;;;;;;;;;;;230.90;2201.60;;;;;;5030083;28;19935;-80
2021/12/18 10:52:15;;;;;;;;;;;231.00;2201.60;;;;;;5036945;28;19958;-80
2021/12/18 10:54:41;;;;;;;;;;;230.80;2227.20;;;;;;5036843;28;19966;-79
2021/12/18 10:57:19;;;;;;;;;;;230.70;2227.20;;;;;;5035489;28;19916;-79
2021/12/18 10:59:48;;;;;;;;;;;231.10;2227.20;;;;;;5036727;28;19904;-78
2021/12/18 11:02:14;;;;;;;;;;;230.80;2227.20;;;;;;5054822;28;19904;-77
2021/12/18 11:04:40;;;;;;;;;;;230.50;2201.60;;;;;;5025165;28;19904;-78
2021/12/18 11:07:20;;;;;;;;;;;230.60;2201.60;;;;;;5022412;28;19905;-78
2021/12/18 11:09:59;;;;;;;;;;;230.50;2252.80;;;;;;5024590;28;19912;-78
2021/12/18 11:15:09;;;;;;;;;;;205.70;2252.80;;;;;;5047542;28;19912;-79
2021/12/18 11:17:35;;;;;;;;;;;205.50;2252.80;;;;;;5034266;28;19913;-78
2021/12/18 11:20:01;;;;;;;;;;;205.70;2252.80;;;;;;5039821;28;19913;-81
2021/12/18 11:22:27;;;;;;;;;;;230.50;2252.80;;;;;;5018972;28;19912;-77
2021/12/18 11:25:04;;;;;;;;;;;230.60;2252.80;;;;;;5024773;28;20293;-78
2021/12/18 11:27:32;;;;;;;;;;;230.50;2252.80;;;;;;5028441;28;19909;-77
2021/12/18 11:30:02;;;;;;;;;;;230.50;2252.80;;;;;;5035847;28;19974;-77
2021/12/18 11:32:30;;;;;;;;;;;230.80;2252.80;;;;;;5015771;28;19921;-78
2021/12/18 11:34:57;;;;;;;;;;;230.60;2252.80;;;;;;5035545;28;19905;-78
2021/12/18 11:37:24;;;;;;;;;;;230.60;2252.80;;;;;;5035964;28;19967;-77
2021/12/18 11:39:50;;;;;;;;;;;230.60;2252.80;;;;;;5013880;28;20333;-79
2021/12/18 11:42:16;;;;;;;;;;;230.60;2252.80;;;;;;5015478;28;19932;-77
2021/12/18 11:44:56;;;;;;;;;;;230.60;2252.80;;;;;;5034096;28;20355;-79
2021/12/18 11:47:24;;;;;;;;;;;230.80;2252.80;;;;;;5033953;28;19940;-79
2021/12/18 11:49:50;;;;;;;;;;;230.70;2252.80;;;;;;5028821;28;19905;-77
2021/12/18 11:52:15;;;;;;;;;;;230.50;2252.80;;;;;;5036008;28;19946;-78
2021/12/18 11:54:41;;;;;;;;;;;230.50;2252.80;;;;;;5069232;28;19948;-79
2021/12/18 11:57:07;;;;;;;;;;;230.60;2252.80;;;;;;5035968;28;19924;-79
2021/12/18 11:59:58;;;;;;;;;;;230.60;2252.80;;;;;;5035942;28;19905;-78
2021/12/18 12:02:40;;;;;;;;;;;230.60;2252.80;;;;;;5033931;28;19943;-77
2021/12/18 12:05:06;;;;;;;;;;;230.50;2252.80;;;;;;5053407;28;19905;-78
2021/12/18 12:07:32;;;;;;;;;;;230.70;2252.80;;;;;;5031851;28;20291;-82
2021/12/18 12:10:48;;;;;;;;;;;230.70;2252.80;;;;;;5024590;28;20047;-80
2021/12/18 12:13:06;;;;;;;;;;;230.60;2252.80;;;;;;5048768;28;20007;-86
2021/12/18 12:15:32;;;;;;;;;;;230.60;2252.80;;;;;;5035030;28;19947;-83
2021/12/18 12:18:01;;;;;;;;;;;230.60;2252.80;;;;;;5052975;28;19939;-82
2021/12/18 12:20:36;;;;;;;;;;;230.50;2252.80;;;;;;5035059;28;19947;-82
2021/12/18 12:23:03;;;;;;;;;;;205.70;2252.80;;;;;;5053464;28;19962;-83
2021/12/18 12:25:33;;;;;;;;;;;205.50;2252.80;;;;;;5053193;28;19915;-84
2021/12/18 12:28:00;;;;;;;;;;;205.40;2252.80;;;;;;5053568;28;19923;-84
2021/12/18 12:30:38;;;;;;;;;;;205.20;2252.80;;;;;;5053534;28;20347;-84
2021/12/18 12:33:05;;;;;;;;;;;205.20;2252.80;;;;;;5052514;28;19950;-77
2021/12/18 12:35:51;;;;;;;;;;;205.10;2252.80;;;;;;5035155;28;19905;-83
2021/12/18 12:38:21;;;;;;;;;;;205.20;2252.80;;;;;;5031931;28;20014;-83
2021/12/18 12:40:48;;;;;;;;;;;205.30;2252.80;;;;;;5035361;28;19916;-80
2021/12/18 12:43:21;;;;;;;;;;;205.20;2252.80;;;;;;5035826;28;19911;-81
2021/12/18 12:45:49;;;;;;;;;;;205.20;2252.80;;;;;;5052838;28;19999;-79
2021/12/18 12:48:16;;;;;;;;;;;205.30;2252.80;;;;;;5035383;28;19911;-77
2021/12/18 12:50:41;;;;;;;;;;;205.20;2252.80;;;;;;5053121;28;19959;-75
2021/12/18 12:53:08;;;;;;;;;;;205.10;2252.80;;;;;;5052923;28;19913;-77
2021/12/18 12:55:39;;;;;;;;;;;205.30;2252.80;;;;;;5035645;28;19920;-78
2021/12/18 12:58:14;;;;;;;;;;;205.10;2252.80;;;;;;5052556;28;20000;-75
2021/12/18 13:00:40;;;;;;;;;;;205.10;2252.80;;;;;;5035500;28;19904;-83
2021/12/18 13:03:08;;;;;;;;;;;205.20;2252.80;;;;;;5052470;28;20432;-84
2021/12/18 13:05:43;;;;;;;;;;;205.20;2252.80;;;;;;5051604;28;19908;-81
2021/12/18 13:08:09;;;;;;;;;;;205.20;2252.80;;;;;;5034238;28;19909;-78
2021/12/18 13:10:37;;;;;;;;;;;205.10;2252.80;;;;;;5034279;28;20319;-80
2021/12/18 13:13:07;;;;;;;;;;;205.30;2252.80;;;;;;5034528;28;19920;-84
2021/12/18 13:16:10;;;;;;;;;;;205.20;2252.80;;;;;;5051840;28;19917;-84
2021/12/18 13:19:02;;;;;;;;;;;205.00;2252.80;;;;;;4971886;28;19918;-75
2021/12/18 13:21:31;;;;;;;;;;;205.00;2252.80;;;;;;4972492;28;19998;-79
2021/12/18 13:23:59;;;;;;;;;;;204.90;2252.80;;;;;;4958800;28;19917;-79
2021/12/18 13:26:27;;;;;;;;;;;204.80;2252.80;;;;;;4975319;28;19912;-85
2021/12/18 13:28:57;;;;;;;;;;;180.10;2252.80;;;;;;4958607;28;19906;-81
2021/12/18 13:31:24;;;;;;;;;;;204.80;2252.80;;;;;;4970924;28;20363;-82
2021/12/18 13:34:01;;;;;;;;;;;204.80;2252.80;;;;;;4975175;28;19910;-83
2021/12/18 13:36:46;;;;;;;;;;;204.90;2252.80;;;;;;4957022;28;19910;-82
2021/12/18 13:39:13;;;;;;;;;;;204.80;2252.80;;;;;;4955976;28;19914;-83
2021/12/18 13:41:54;;;;;;;;;;;205.00;2252.80;;;;;;4970152;28;19910;-80
2021/12/18 13:44:20;;;;;;;;;;;205.10;2252.80;;;;;;4967324;28;20034;-83
2021/12/18 13:46:45;;;;;;;;;;;205.20;2252.80;;;;;;4947020;29;19984;-82
2021/12/18 13:49:11;;;;;;;;;;;205.10;2252.80;;;;;;4930179;29;19910;-82
2021/12/18 13:51:36;;;;;;;;;;;204.90;2252.80;;;;;;4954817;28;19910;-83
2021/12/18 13:54:03;;;;;;;;;;;204.80;2252.80;;;;;;5009364;28;20320;-78
2021/12/18 13:56:30;;;;;;;;;;;180.10;2252.80;;;;;;5024132;28;19917;-82
2021/12/18 13:58:56;;;;;;;;;;;180.00;2252.80;;;;;;5024375;28;19913;-84
2021/12/18 14:01:23;;;;;;;;;;;180.00;2252.80;;;;;;5025243;28;19905;-83
2021/12/18 14:03:50;;;;;;;;;;;179.90;2252.80;;;;;;5026030;28;19928;-82
2021/12/18 14:06:16;;;;;;;;;;;179.70;2252.80;;;;;;5011797;28;19917;-81
2021/12/18 14:08:42;;;;;;;;;;;179.80;2252.80;;;;;;5025212;28;19911;-82
2021/12/18 14:11:10;;;;;;;;;;;179.70;2252.80;;;;;;5026856;28;19905;-79
2021/12/18 14:13:47;;;;;;;;;;;179.70;2252.80;;;;;;5054239;28;19905;-77
2021/12/18 14:16:12;;;;;;;;;;;179.60;2252.80;;;;;;5039472;28;19909;-81
2021/12/18 14:18:44;;;;;;;;;;;179.50;2252.80;;;;;;5035896;28;19908;-82
2021/12/18 14:21:10;;;;;;;;;;;179.40;2252.80;;;;;;5052766;28;20006;-80
2021/12/18 14:23:37;;;;;;;;;;;179.50;2252.80;;;;;;5054095;28;19910;-79
2021/12/18 14:26:11;;;;;;;;;;;179.50;2252.80;;;;;;5036317;28;20289;-74
2021/12/18 14:28:36;;;;;;;;;;;179.50;2252.80;;;;;;5052373;28;20346;-81
2021/12/18 14:31:02;;;;;;;;;;;179.40;2252.80;;;;;;5054360;28;19912;-78